SBOSBO BHD / EGAC
Speedbird OnlineSpeedbird Online BHD / EGAC

George Best Belfast City Airport
00:45 13.8°C

Location Belfast, United Kingdom
Latitude: 54.618099212646484
Longitude: -5.872499942779541
Local Time 00:45 on 22 Jun 2024
UTC +1 hours (Europe/London)
METAR EGAC 212320Z AUTO 25006KT 9999 BKN016 BKN024 OVC034 14/12 Q1007
TAF
Weather As Of 22 Jun 2024 00:45
Description Overcast clouds
Wind 11 km/h from West (250°)
Cloud Cover 100%
Precipitation Rain: none, Snow: none
Sunrise 04:47
Sunset 22:03
NOTAM 11 active NOTAM
Rotations During the last 90 days there were
454 flights from LHR
173 flights from LCY
1 flights from SNN
1 flights from GLA
477 flights to LHR
179 flights to LCY
1 flights to BLQ
Lounges Aspire Lounge , Main Terminal
Web Airport Website | Wikipedia
Codes IATA: BHD
ICAO: EGAC
Altitude 5 Meter / 15 Feet
Distance 529 KM / 329 Miles
from London.
Runways
RunwayLength (m)Surface
041829Asphalt
221829Asphalt
Radio
TypeDescriptionFrequency
APPBELFAST APP130.85
ATISATIS136.625
TWRBELFAST TWR122.825
Live ATC



Support Speedbird Online

© 2017-2024 Speedbird Online